sensor_id;sensor_type;location;lat;lon;timestamp;P1;durP1;ratioP1;P2;durP2;ratioP2
49826;SDS011;35715;51.570;6.036;2022-07-09T00:00:51;14.25;;;7.50;;
49826;SDS011;35715;51.570;6.036;2022-07-09T00:03:16;9.57;;;7.88;;
49826;SDS011;35715;51.570;6.036;2022-07-09T00:05:43;7.88;;;7.07;;
49826;SDS011;35715;51.570;6.036;2022-07-09T00:08:09;8.20;;;7.32;;
49826;SDS011;35715;51.570;6.036;2022-07-09T00:10:34;17.25;;;9.02;;
49826;SDS011;35715;51.570;6.036;2022-07-09T00:13:00;9.25;;;8.15;;
49826;SDS011;35715;51.570;6.036;2022-07-09T00:15:26;8.63;;;7.78;;
49826;SDS011;35715;51.570;6.036;2022-07-09T00:17:51;9.15;;;8.27;;
49826;SDS011;35715;51.570;6.036;2022-07-09T00:20:17;11.00;;;8.80;;
49826;SDS011;35715;51.570;6.036;2022-07-09T00:22:42;10.13;;;8.63;;
49826;SDS011;35715;51.570;6.036;2022-07-09T00:25:08;9.27;;;8.40;;
49826;SDS011;35715;51.570;6.036;2022-07-09T00:27:33;9.52;;;8.23;;
49826;SDS011;35715;51.570;6.036;2022-07-09T00:30:00;11.60;;;8.35;;
49826;SDS011;35715;51.570;6.036;2022-07-09T00:32:26;8.63;;;7.78;;
49826;SDS011;35715;51.570;6.036;2022-07-09T00:34:51;14.48;;;9.02;;
49826;SDS011;35715;51.570;6.036;2022-07-09T00:37:18;14.60;;;9.10;;
49826;SDS011;35715;51.570;6.036;2022-07-09T00:39:44;8.02;;;7.30;;
49826;SDS011;35715;51.570;6.036;2022-07-09T00:42:10;10.43;;;7.90;;
49826;SDS011;35715;51.570;6.036;2022-07-09T00:44:36;7.93;;;6.63;;
49826;SDS011;35715;51.570;6.036;2022-07-09T00:47:04;9.18;;;7.72;;
49826;SDS011;35715;51.570;6.036;2022-07-09T00:49:31;9.45;;;8.50;;
49826;SDS011;35715;51.570;6.036;2022-07-09T00:52:00;9.13;;;8.35;;
49826;SDS011;35715;51.570;6.036;2022-07-09T00:54:26;9.65;;;8.75;;
49826;SDS011;35715;51.570;6.036;2022-07-09T00:56:56;13.05;;;9.10;;
49826;SDS011;35715;51.570;6.036;2022-07-09T00:59:21;9.18;;;6.95;;
49826;SDS011;35715;51.570;6.036;2022-07-09T01:01:50;11.32;;;8.15;;
49826;SDS011;35715;51.570;6.036;2022-07-09T01:04:16;10.57;;;8.55;;
49826;SDS011;35715;51.570;6.036;2022-07-09T01:09:16;10.13;;;9.20;;
49826;SDS011;35715;51.570;6.036;2022-07-09T01:11:41;12.13;;;8.82;;
49826;SDS011;35715;51.570;6.036;2022-07-09T01:14:06;13.32;;;9.55;;
49826;SDS011;35715;51.570;6.036;2022-07-09T01:16:35;12.75;;;9.95;;
49826;SDS011;35715;51.570;6.036;2022-07-09T01:19:05;15.10;;;10.65;;
49826;SDS011;35715;51.570;6.036;2022-07-09T01:21:30;11.25;;;8.52;;
49826;SDS011;35715;51.570;6.036;2022-07-09T01:23:56;9.73;;;8.48;;
49826;SDS011;35715;51.570;6.036;2022-07-09T01:26:23;13.25;;;9.13;;
49826;SDS011;35715;51.570;6.036;2022-07-09T01:28:50;11.07;;;10.00;;
49826;SDS011;35715;51.570;6.036;2022-07-09T01:31:15;11.43;;;9.43;;
49826;SDS011;35715;51.570;6.036;2022-07-09T01:33:41;11.88;;;10.73;;
49826;SDS011;35715;51.570;6.036;2022-07-09T01:36:07;10.48;;;9.45;;
49826;SDS011;35715;51.570;6.036;2022-07-09T01:38:33;11.68;;;10.57;;
49826;SDS011;35715;51.570;6.036;2022-07-09T01:40:58;11.85;;;10.75;;
49826;SDS011;35715;51.570;6.036;2022-07-09T01:43:24;14.90;;;11.98;;
49826;SDS011;35715;51.570;6.036;2022-07-09T01:45:50;11.05;;;9.90;;
49826;SDS011;35715;51.570;6.036;2022-07-09T01:48:15;12.18;;;10.77;;
49826;SDS011;35715;51.570;6.036;2022-07-09T01:50:41;11.93;;;10.32;;
49826;SDS011;35715;51.570;6.036;2022-07-09T01:53:06;11.00;;;9.98;;
49826;SDS011;35715;51.570;6.036;2022-07-09T01:55:33;15.93;;;11.32;;
49826;SDS011;35715;51.570;6.036;2022-07-09T01:57:58;13.38;;;11.85;;
49826;SDS011;35715;51.570;6.036;2022-07-09T02:00:24;16.13;;;11.48;;
49826;SDS011;35715;51.570;6.036;2022-07-09T02:02:49;12.27;;;11.07;;
49826;SDS011;35715;51.570;6.036;2022-07-09T02:05:14;11.60;;;10.43;;
49826;SDS011;35715;51.570;6.036;2022-07-09T02:07:40;20.88;;;12.88;;
49826;SDS011;35715;51.570;6.036;2022-07-09T02:10:05;17.20;;;13.32;;
49826;SDS011;35715;51.570;6.036;2022-07-09T02:12:31;18.33;;;12.70;;
49826;SDS011;35715;51.570;6.036;2022-07-09T02:14:56;13.60;;;12.00;;
49826;SDS011;35715;51.570;6.036;2022-07-09T02:17:23;16.42;;;12.52;;
49826;SDS011;35715;51.570;6.036;2022-07-09T02:19:49;12.43;;;11.15;;
49826;SDS011;35715;51.570;6.036;2022-07-09T02:22:14;12.48;;;11.25;;
49826;SDS011;35715;51.570;6.036;2022-07-09T02:24:40;11.77;;;10.88;;
49826;SDS011;35715;51.570;6.036;2022-07-09T02:27:07;15.15;;;13.45;;
49826;SDS011;35715;51.570;6.036;2022-07-09T02:29:32;14.18;;;12.85;;
49826;SDS011;35715;51.570;6.036;2022-07-09T02:31:58;16.02;;;13.45;;
49826;SDS011;35715;51.570;6.036;2022-07-09T02:34:23;20.67;;;14.02;;
49826;SDS011;35715;51.570;6.036;2022-07-09T02:36:49;14.75;;;12.82;;
49826;SDS011;35715;51.570;6.036;2022-07-09T02:39:15;18.13;;;13.55;;
49826;SDS011;35715;51.570;6.036;2022-07-09T02:41:41;14.40;;;13.02;;
49826;SDS011;35715;51.570;6.036;2022-07-09T02:44:07;14.98;;;13.43;;
49826;SDS011;35715;51.570;6.036;2022-07-09T02:46:34;16.08;;;14.40;;
49826;SDS011;35715;51.570;6.036;2022-07-09T02:49:00;14.57;;;13.23;;
49826;SDS011;35715;51.570;6.036;2022-07-09T02:51:25;15.77;;;14.05;;
49826;SDS011;35715;51.570;6.036;2022-07-09T02:53:50;14.90;;;13.50;;
49826;SDS011;35715;51.570;6.036;2022-07-09T02:56:16;14.18;;;12.90;;
49826;SDS011;35715;51.570;6.036;2022-07-09T02:58:41;14.75;;;13.25;;
49826;SDS011;35715;51.570;6.036;2022-07-09T03:01:06;14.77;;;13.35;;
49826;SDS011;35715;51.570;6.036;2022-07-09T03:03:32;16.90;;;15.45;;
49826;SDS011;35715;51.570;6.036;2022-07-09T03:08:33;15.68;;;14.20;;
49826;SDS011;35715;51.570;6.036;2022-07-09T03:10:58;15.02;;;13.63;;
49826;SDS011;35715;51.570;6.036;2022-07-09T03:13:24;15.63;;;13.50;;
49826;SDS011;35715;51.570;6.036;2022-07-09T03:15:54;19.02;;;13.05;;
49826;SDS011;35715;51.570;6.036;2022-07-09T03:18:20;15.85;;;14.30;;
49826;SDS011;35715;51.570;6.036;2022-07-09T03:20:45;13.07;;;11.90;;
49826;SDS011;35715;51.570;6.036;2022-07-09T03:23:12;16.63;;;13.57;;
49826;SDS011;35715;51.570;6.036;2022-07-09T03:25:38;18.27;;;14.65;;
49826;SDS011;35715;51.570;6.036;2022-07-09T03:28:03;16.73;;;14.85;;
49826;SDS011;35715;51.570;6.036;2022-07-09T03:30:29;15.35;;;14.05;;
49826;SDS011;35715;51.570;6.036;2022-07-09T03:32:55;15.75;;;14.15;;
49826;SDS011;35715;51.570;6.036;2022-07-09T03:35:21;15.10;;;13.52;;
49826;SDS011;35715;51.570;6.036;2022-07-09T03:37:47;21.80;;;14.40;;
49826;SDS011;35715;51.570;6.036;2022-07-09T03:40:12;15.40;;;13.80;;
49826;SDS011;35715;51.570;6.036;2022-07-09T03:42:37;15.43;;;14.00;;
49826;SDS011;35715;51.570;6.036;2022-07-09T03:45:03;16.73;;;13.55;;
49826;SDS011;35715;51.570;6.036;2022-07-09T03:47:30;16.38;;;14.88;;
49826;SDS011;35715;51.570;6.036;2022-07-09T03:49:55;22.08;;;14.38;;
49826;SDS011;35715;51.570;6.036;2022-07-09T03:52:21;14.48;;;12.98;;
49826;SDS011;35715;51.570;6.036;2022-07-09T03:54:46;17.42;;;14.77;;
49826;SDS011;35715;51.570;6.036;2022-07-09T03:57:13;19.10;;;13.20;;
49826;SDS011;35715;51.570;6.036;2022-07-09T03:59:38;15.77;;;14.23;;
49826;SDS011;35715;51.570;6.036;2022-07-09T04:02:03;19.42;;;14.85;;
49826;SDS011;35715;51.570;6.036;2022-07-09T04:04:30;15.15;;;13.70;;
49826;SDS011;35715;51.570;6.036;2022-07-09T04:07:09;15.52;;;14.02;;
49826;SDS011;35715;51.570;6.036;2022-07-09T04:09:34;16.15;;;14.48;;
49826;SDS011;35715;51.570;6.036;2022-07-09T04:12:00;16.60;;;14.80;;
49826;SDS011;35715;51.570;6.036;2022-07-09T04:14:25;19.92;;;16.17;;
49826;SDS011;35715;51.570;6.036;2022-07-09T04:16:58;16.02;;;14.48;;
49826;SDS011;35715;51.570;6.036;2022-07-09T04:19:24;18.05;;;16.15;;
49826;SDS011;35715;51.570;6.036;2022-07-09T04:21:49;20.02;;;15.23;;
49826;SDS011;35715;51.570;6.036;2022-07-09T04:24:14;14.68;;;13.23;;
49826;SDS011;35715;51.570;6.036;2022-07-09T04:26:43;19.52;;;14.48;;
49826;SDS011;35715;51.570;6.036;2022-07-09T04:29:08;17.70;;;16.00;;
49826;SDS011;35715;51.570;6.036;2022-07-09T04:31:33;16.88;;;15.05;;
49826;SDS011;35715;51.570;6.036;2022-07-09T04:33:59;16.60;;;15.20;;
49826;SDS011;35715;51.570;6.036;2022-07-09T04:38:56;17.98;;;15.43;;
49826;SDS011;35715;51.570;6.036;2022-07-09T04:41:22;20.08;;;17.95;;
49826;SDS011;35715;51.570;6.036;2022-07-09T04:43:47;18.00;;;16.30;;
49826;SDS011;35715;51.570;6.036;2022-07-09T04:46:15;18.30;;;16.38;;
49826;SDS011;35715;51.570;6.036;2022-07-09T04:48:41;18.38;;;16.67;;
49826;SDS011;35715;51.570;6.036;2022-07-09T04:51:07;18.63;;;16.77;;
49826;SDS011;35715;51.570;6.036;2022-07-09T04:53:32;19.25;;;16.63;;
49826;SDS011;35715;51.570;6.036;2022-07-09T04:55:59;24.65;;;19.30;;
49826;SDS011;35715;51.570;6.036;2022-07-09T04:58:25;20.02;;;17.48;;
49826;SDS011;35715;51.570;6.036;2022-07-09T05:00:50;18.42;;;16.60;;
49826;SDS011;35715;51.570;6.036;2022-07-09T05:03:16;19.95;;;17.77;;
49826;SDS011;35715;51.570;6.036;2022-07-09T05:05:41;17.63;;;15.93;;
49826;SDS011;35715;51.570;6.036;2022-07-09T05:08:07;17.95;;;16.20;;
49826;SDS011;35715;51.570;6.036;2022-07-09T05:10:32;20.23;;;18.23;;
49826;SDS011;35715;51.570;6.036;2022-07-09T05:12:57;27.08;;;20.15;;
49826;SDS011;35715;51.570;6.036;2022-07-09T05:15:24;24.48;;;18.65;;
49826;SDS011;35715;51.570;6.036;2022-07-09T05:17:49;20.50;;;16.67;;
49826;SDS011;35715;51.570;6.036;2022-07-09T05:20:14;22.70;;;17.55;;
49826;SDS011;35715;51.570;6.036;2022-07-09T05:22:40;21.50;;;18.23;;
49826;SDS011;35715;51.570;6.036;2022-07-09T05:25:05;24.23;;;18.15;;
49826;SDS011;35715;51.570;6.036;2022-07-09T05:27:31;29.15;;;19.73;;
49826;SDS011;35715;51.570;6.036;2022-07-09T05:29:56;29.92;;;19.92;;
49826;SDS011;35715;51.570;6.036;2022-07-09T05:32:22;38.30;;;21.10;;
49826;SDS011;35715;51.570;6.036;2022-07-09T05:34:47;23.20;;;20.30;;
49826;SDS011;35715;51.570;6.036;2022-07-09T05:37:13;24.10;;;20.42;;
49826;SDS011;35715;51.570;6.036;2022-07-09T05:39:39;23.80;;;20.70;;
49826;SDS011;35715;51.570;6.036;2022-07-09T05:42:05;25.38;;;22.73;;
49826;SDS011;35715;51.570;6.036;2022-07-09T05:44:30;22.40;;;20.27;;
49826;SDS011;35715;51.570;6.036;2022-07-09T05:46:56;23.10;;;20.65;;
49826;SDS011;35715;51.570;6.036;2022-07-09T05:49:21;24.50;;;21.95;;
49826;SDS011;35715;51.570;6.036;2022-07-09T05:51:47;28.92;;;22.05;;
49826;SDS011;35715;51.570;6.036;2022-07-09T05:54:12;22.85;;;20.55;;
49826;SDS011;35715;51.570;6.036;2022-07-09T05:56:45;25.30;;;22.58;;
49826;SDS011;35715;51.570;6.036;2022-07-09T05:59:10;24.52;;;22.17;;
49826;SDS011;35715;51.570;6.036;2022-07-09T06:01:36;24.58;;;22.17;;
49826;SDS011;35715;51.570;6.036;2022-07-09T06:04:08;25.58;;;22.83;;
49826;SDS011;35715;51.570;6.036;2022-07-09T06:06:34;25.35;;;22.85;;
49826;SDS011;35715;51.570;6.036;2022-07-09T06:08:59;25.58;;;23.02;;
49826;SDS011;35715;51.570;6.036;2022-07-09T06:11:25;26.23;;;23.52;;
49826;SDS011;35715;51.570;6.036;2022-07-09T06:13:51;24.23;;;21.80;;
49826;SDS011;35715;51.570;6.036;2022-07-09T06:16:23;27.98;;;23.40;;
49826;SDS011;35715;51.570;6.036;2022-07-09T06:18:48;26.40;;;22.27;;
49826;SDS011;35715;51.570;6.036;2022-07-09T06:21:13;23.92;;;20.70;;
49826;SDS011;35715;51.570;6.036;2022-07-09T06:23:39;23.58;;;21.17;;
49826;SDS011;35715;51.570;6.036;2022-07-09T06:26:04;22.77;;;20.55;;
49826;SDS011;35715;51.570;6.036;2022-07-09T06:28:29;21.25;;;19.05;;
49826;SDS011;35715;51.570;6.036;2022-07-09T06:30:55;21.42;;;19.25;;
49826;SDS011;35715;51.570;6.036;2022-07-09T06:33:20;22.33;;;19.98;;
49826;SDS011;35715;51.570;6.036;2022-07-09T06:35:47;21.63;;;19.00;;
49826;SDS011;35715;51.570;6.036;2022-07-09T06:38:12;28.20;;;21.80;;
49826;SDS011;35715;51.570;6.036;2022-07-09T06:40:37;22.90;;;20.40;;
49826;SDS011;35715;51.570;6.036;2022-07-09T06:43:03;28.63;;;19.65;;
49826;SDS011;35715;51.570;6.036;2022-07-09T06:45:30;22.60;;;20.30;;
49826;SDS011;35715;51.570;6.036;2022-07-09T06:47:55;21.67;;;18.23;;
49826;SDS011;35715;51.570;6.036;2022-07-09T06:50:20;19.95;;;18.08;;
49826;SDS011;35715;51.570;6.036;2022-07-09T06:52:46;20.80;;;18.63;;
49826;SDS011;35715;51.570;6.036;2022-07-09T06:55:11;19.70;;;17.88;;
49826;SDS011;35715;51.570;6.036;2022-07-09T06:57:37;21.80;;;19.80;;
49826;SDS011;35715;51.570;6.036;2022-07-09T07:00:04;20.45;;;17.75;;
49826;SDS011;35715;51.570;6.036;2022-07-09T07:02:30;16.60;;;15.15;;
49826;SDS011;35715;51.570;6.036;2022-07-09T07:04:56;19.27;;;17.17;;
49826;SDS011;35715;51.570;6.036;2022-07-09T07:07:21;18.77;;;16.08;;
49826;SDS011;35715;51.570;6.036;2022-07-09T07:09:47;16.60;;;15.02;;
49826;SDS011;35715;51.570;6.036;2022-07-09T07:12:12;17.23;;;15.27;;
49826;SDS011;35715;51.570;6.036;2022-07-09T07:14:38;20.15;;;15.93;;
49826;SDS011;35715;51.570;6.036;2022-07-09T07:17:05;15.32;;;13.95;;
49826;SDS011;35715;51.570;6.036;2022-07-09T07:19:30;14.73;;;13.27;;
49826;SDS011;35715;51.570;6.036;2022-07-09T07:21:56;15.07;;;13.55;;
49826;SDS011;35715;51.570;6.036;2022-07-09T07:24:21;14.38;;;12.88;;
49826;SDS011;35715;51.570;6.036;2022-07-09T07:26:48;15.25;;;13.60;;
49826;SDS011;35715;51.570;6.036;2022-07-09T07:29:13;20.40;;;12.00;;
49826;SDS011;35715;51.570;6.036;2022-07-09T07:31:39;17.08;;;13.25;;
49826;SDS011;35715;51.570;6.036;2022-07-09T07:34:04;15.18;;;13.23;;
49826;SDS011;35715;51.570;6.036;2022-07-09T07:36:35;15.40;;;13.93;;
49826;SDS011;35715;51.570;6.036;2022-07-09T07:39:00;15.02;;;13.57;;
49826;SDS011;35715;51.570;6.036;2022-07-09T07:41:25;13.60;;;12.23;;
49826;SDS011;35715;51.570;6.036;2022-07-09T07:43:51;14.38;;;13.02;;
49826;SDS011;35715;51.570;6.036;2022-07-09T07:46:16;14.10;;;12.90;;
49826;SDS011;35715;51.570;6.036;2022-07-09T07:48:41;13.07;;;11.80;;
49826;SDS011;35715;51.570;6.036;2022-07-09T07:51:07;12.77;;;11.48;;
49826;SDS011;35715;51.570;6.036;2022-07-09T07:53:33;13.38;;;12.18;;
49826;SDS011;35715;51.570;6.036;2022-07-09T07:56:07;10.50;;;9.43;;
49826;SDS011;35715;51.570;6.036;2022-07-09T07:58:33;9.48;;;7.10;;
49826;SDS011;35715;51.570;6.036;2022-07-09T08:01:00;9.27;;;8.45;;
49826;SDS011;35715;51.570;6.036;2022-07-09T08:03:26;8.75;;;7.97;;
49826;SDS011;35715;51.570;6.036;2022-07-09T08:05:55;9.68;;;8.70;;
49826;SDS011;35715;51.570;6.036;2022-07-09T08:08:21;13.80;;;10.82;;
49826;SDS011;35715;51.570;6.036;2022-07-09T08:10:46;16.70;;;9.75;;
49826;SDS011;35715;51.570;6.036;2022-07-09T08:13:13;8.40;;;7.57;;
49826;SDS011;35715;51.570;6.036;2022-07-09T08:15:40;10.20;;;9.18;;
49826;SDS011;35715;51.570;6.036;2022-07-09T08:18:06;9.57;;;8.10;;
49826;SDS011;35715;51.570;6.036;2022-07-09T08:20:33;9.50;;;8.60;;
49826;SDS011;35715;51.570;6.036;2022-07-09T08:23:01;9.15;;;8.25;;
49826;SDS011;35715;51.570;6.036;2022-07-09T08:25:27;8.18;;;7.53;;
49826;SDS011;35715;51.570;6.036;2022-07-09T08:27:52;9.77;;;8.25;;
49826;SDS011;35715;51.570;6.036;2022-07-09T08:30:18;10.32;;;8.98;;
49826;SDS011;35715;51.570;6.036;2022-07-09T08:32:43;9.90;;;8.90;;
49826;SDS011;35715;51.570;6.036;2022-07-09T08:35:08;8.65;;;8.00;;
49826;SDS011;35715;51.570;6.036;2022-07-09T08:37:34;9.43;;;8.23;;
49826;SDS011;35715;51.570;6.036;2022-07-09T08:40:00;8.80;;;7.93;;
49826;SDS011;35715;51.570;6.036;2022-07-09T08:42:26;9.25;;;8.35;;
49826;SDS011;35715;51.570;6.036;2022-07-09T08:44:52;9.73;;;8.95;;
49826;SDS011;35715;51.570;6.036;2022-07-09T08:47:20;9.38;;;8.50;;
49826;SDS011;35715;51.570;6.036;2022-07-09T08:49:47;9.35;;;8.50;;
49826;SDS011;35715;51.570;6.036;2022-07-09T08:52:15;10.35;;;9.45;;
49826;SDS011;35715;51.570;6.036;2022-07-09T08:54:40;8.88;;;8.02;;
49826;SDS011;35715;51.570;6.036;2022-07-09T08:57:09;10.85;;;9.73;;
49826;SDS011;35715;51.570;6.036;2022-07-09T08:59:34;9.85;;;8.85;;
49826;SDS011;35715;51.570;6.036;2022-07-09T09:02:08;8.02;;;7.32;;
49826;SDS011;35715;51.570;6.036;2022-07-09T09:04:35;9.40;;;8.07;;
49826;SDS011;35715;51.570;6.036;2022-07-09T09:07:13;9.88;;;9.07;;
49826;SDS011;35715;51.570;6.036;2022-07-09T09:09:48;12.52;;;8.18;;
49826;SDS011;35715;51.570;6.036;2022-07-09T09:12:14;12.10;;;8.38;;
49826;SDS011;35715;51.570;6.036;2022-07-09T09:14:39;10.18;;;7.68;;
49826;SDS011;35715;51.570;6.036;2022-07-09T09:17:15;9.75;;;8.85;;
49826;SDS011;35715;51.570;6.036;2022-07-09T09:19:41;9.50;;;8.55;;
49826;SDS011;35715;51.570;6.036;2022-07-09T09:22:06;8.30;;;7.60;;
49826;SDS011;35715;51.570;6.036;2022-07-09T09:24:33;8.63;;;7.72;;
49826;SDS011;35715;51.570;6.036;2022-07-09T09:27:00;13.07;;;8.80;;
49826;SDS011;35715;51.570;6.036;2022-07-09T09:29:26;10.77;;;7.38;;
49826;SDS011;35715;51.570;6.036;2022-07-09T09:31:52;35.70;;;7.78;;
49826;SDS011;35715;51.570;6.036;2022-07-09T09:34:18;7.25;;;6.65;;
49826;SDS011;35715;51.570;6.036;2022-07-09T09:36:53;6.57;;;5.97;;
49826;SDS011;35715;51.570;6.036;2022-07-09T09:39:24;6.28;;;5.68;;
49826;SDS011;35715;51.570;6.036;2022-07-09T09:41:51;6.75;;;6.03;;
49826;SDS011;35715;51.570;6.036;2022-07-09T09:44:25;7.82;;;5.88;;
49826;SDS011;35715;51.570;6.036;2022-07-09T09:46:53;6.78;;;5.55;;
49826;SDS011;35715;51.570;6.036;2022-07-09T09:49:19;4.65;;;4.35;;
49826;SDS011;35715;51.570;6.036;2022-07-09T09:51:50;5.53;;;5.05;;
49826;SDS011;35715;51.570;6.036;2022-07-09T09:54:21;6.28;;;4.47;;
49826;SDS011;35715;51.570;6.036;2022-07-09T09:56:49;6.43;;;4.65;;
49826;SDS011;35715;51.570;6.036;2022-07-09T09:59:15;4.68;;;4.18;;
49826;SDS011;35715;51.570;6.036;2022-07-09T10:01:42;6.18;;;5.50;;
49826;SDS011;35715;51.570;6.036;2022-07-09T10:04:08;7.18;;;6.53;;
49826;SDS011;35715;51.570;6.036;2022-07-09T10:06:36;5.78;;;4.97;;
49826;SDS011;35715;51.570;6.036;2022-07-09T10:09:02;7.78;;;5.43;;
49826;SDS011;35715;51.570;6.036;2022-07-09T10:11:42;6.90;;;5.15;;
49826;SDS011;35715;51.570;6.036;2022-07-09T10:14:13;8.70;;;5.20;;
49826;SDS011;35715;51.570;6.036;2022-07-09T10:16:46;5.53;;;4.45;;
49826;SDS011;35715;51.570;6.036;2022-07-09T10:19:21;5.28;;;3.97;;
49826;SDS011;35715;51.570;6.036;2022-07-09T10:21:58;5.78;;;5.28;;
49826;SDS011;35715;51.570;6.036;2022-07-09T10:24:25;6.65;;;6.15;;
49826;SDS011;35715;51.570;6.036;2022-07-09T10:32:29;8.05;;;7.35;;
49826;SDS011;35715;51.570;6.036;2022-07-09T10:35:03;11.75;;;10.63;;
49826;SDS011;35715;51.570;6.036;2022-07-09T10:40:11;8.02;;;7.22;;
49826;SDS011;35715;51.570;6.036;2022-07-09T10:42:37;9.75;;;8.93;;
49826;SDS011;35715;51.570;6.036;2022-07-09T10:45:14;10.52;;;7.80;;
49826;SDS011;35715;51.570;6.036;2022-07-09T10:47:44;9.63;;;8.52;;
49826;SDS011;35715;51.570;6.036;2022-07-09T10:50:14;15.68;;;10.65;;
49826;SDS011;35715;51.570;6.036;2022-07-09T10:52:40;12.23;;;9.18;;
49826;SDS011;35715;51.570;6.036;2022-07-09T10:55:06;14.27;;;9.27;;
49826;SDS011;35715;51.570;6.036;2022-07-09T10:57:31;12.20;;;9.85;;
49826;SDS011;35715;51.570;6.036;2022-07-09T11:00:00;12.07;;;10.38;;
49826;SDS011;35715;51.570;6.036;2022-07-09T11:02:25;11.18;;;10.05;;
49826;SDS011;35715;51.570;6.036;2022-07-09T11:04:52;12.02;;;9.38;;
49826;SDS011;35715;51.570;6.036;2022-07-09T11:09:47;12.23;;;7.78;;
49826;SDS011;35715;51.570;6.036;2022-07-09T11:12:19;13.40;;;8.75;;
49826;SDS011;35715;51.570;6.036;2022-07-09T11:14:47;10.82;;;8.68;;
49826;SDS011;35715;51.570;6.036;2022-07-09T11:20:03;10.45;;;8.20;;
49826;SDS011;35715;51.570;6.036;2022-07-09T11:22:29;9.45;;;8.57;;
49826;SDS011;35715;51.570;6.036;2022-07-09T11:24:54;9.88;;;8.15;;
49826;SDS011;35715;51.570;6.036;2022-07-09T11:27:25;11.90;;;10.80;;
49826;SDS011;35715;51.570;6.036;2022-07-09T11:29:51;11.05;;;10.00;;
49826;SDS011;35715;51.570;6.036;2022-07-09T11:32:16;12.98;;;9.00;;
49826;SDS011;35715;51.570;6.036;2022-07-09T11:34:49;7.65;;;6.85;;
49826;SDS011;35715;51.570;6.036;2022-07-09T11:39:51;9.32;;;8.45;;
49826;SDS011;35715;51.570;6.036;2022-07-09T11:42:17;13.43;;;7.90;;
49826;SDS011;35715;51.570;6.036;2022-07-09T11:44:52;12.15;;;8.70;;
49826;SDS011;35715;51.570;6.036;2022-07-09T11:47:36;10.93;;;8.18;;
49826;SDS011;35715;51.570;6.036;2022-07-09T11:50:14;9.40;;;8.07;;
49826;SDS011;35715;51.570;6.036;2022-07-09T11:55:21;10.82;;;7.38;;
49826;SDS011;35715;51.570;6.036;2022-07-09T11:57:57;9.13;;;5.03;;
49826;SDS011;35715;51.570;6.036;2022-07-09T12:00:25;7.18;;;5.55;;
49826;SDS011;35715;51.570;6.036;2022-07-09T12:02:53;6.15;;;4.38;;
49826;SDS011;35715;51.570;6.036;2022-07-09T12:05:31;7.80;;;5.35;;
49826;SDS011;35715;51.570;6.036;2022-07-09T12:08:05;7.88;;;5.18;;
49826;SDS011;35715;51.570;6.036;2022-07-09T12:10:38;4.15;;;3.85;;
49826;SDS011;35715;51.570;6.036;2022-07-09T12:13:05;4.20;;;3.90;;
49826;SDS011;35715;51.570;6.036;2022-07-09T12:18:00;6.55;;;3.67;;
49826;SDS011;35715;51.570;6.036;2022-07-09T12:20:27;10.13;;;4.82;;
49826;SDS011;35715;51.570;6.036;2022-07-09T12:22:54;3.75;;;3.30;;
49826;SDS011;35715;51.570;6.036;2022-07-09T12:25:21;3.55;;;2.47;;
49826;SDS011;35715;51.570;6.036;2022-07-09T12:27:47;6.43;;;2.50;;
49826;SDS011;35715;51.570;6.036;2022-07-09T12:30:14;6.80;;;2.72;;
49826;SDS011;35715;51.570;6.036;2022-07-09T12:32:40;4.30;;;2.97;;
49826;SDS011;35715;51.570;6.036;2022-07-09T12:35:06;6.18;;;2.88;;
49826;SDS011;35715;51.570;6.036;2022-07-09T12:37:32;4.78;;;2.00;;
49826;SDS011;35715;51.570;6.036;2022-07-09T12:39:59;2.85;;;2.35;;
49826;SDS011;35715;51.570;6.036;2022-07-09T12:42:25;1.42;;;1.33;;
49826;SDS011;35715;51.570;6.036;2022-07-09T12:44:50;4.70;;;1.77;;
49826;SDS011;35715;51.570;6.036;2022-07-09T12:50:37;1.25;;;1.15;;
49826;SDS011;35715;51.570;6.036;2022-07-09T12:53:03;1.90;;;1.75;;
49826;SDS011;35715;51.570;6.036;2022-07-09T12:55:33;3.95;;;1.40;;
49826;SDS011;35715;51.570;6.036;2022-07-09T12:57:58;2.97;;;1.00;;
49826;SDS011;35715;51.570;6.036;2022-07-09T13:00:24;3.70;;;1.40;;
49826;SDS011;35715;51.570;6.036;2022-07-09T13:02:49;7.32;;;2.47;;
49826;SDS011;35715;51.570;6.036;2022-07-09T13:05:15;6.68;;;1.40;;
49826;SDS011;35715;51.570;6.036;2022-07-09T13:07:41;5.80;;;1.35;;
49826;SDS011;35715;51.570;6.036;2022-07-09T13:10:07;4.47;;;1.17;;
49826;SDS011;35715;51.570;6.036;2022-07-09T13:12:33;6.22;;;1.63;;
49826;SDS011;35715;51.570;6.036;2022-07-09T13:14:58;3.38;;;1.58;;
49826;SDS011;35715;51.570;6.036;2022-07-09T13:17:30;10.55;;;1.60;;
49826;SDS011;35715;51.570;6.036;2022-07-09T13:19:56;7.28;;;1.00;;
49826;SDS011;35715;51.570;6.036;2022-07-09T13:22:21;3.75;;;1.63;;
49826;SDS011;35715;51.570;6.036;2022-07-09T13:24:46;1.90;;;1.20;;
49826;SDS011;35715;51.570;6.036;2022-07-09T13:27:16;1.27;;;1.15;;
49826;SDS011;35715;51.570;6.036;2022-07-09T13:29:43;1.75;;;1.20;;
49826;SDS011;35715;51.570;6.036;2022-07-09T13:32:09;2.83;;;1.10;;
49826;SDS011;35715;51.570;6.036;2022-07-09T13:34:35;3.60;;;1.20;;
49826;SDS011;35715;51.570;6.036;2022-07-09T13:37:01;3.05;;;1.10;;
49826;SDS011;35715;51.570;6.036;2022-07-09T13:39:27;5.00;;;1.13;;
49826;SDS011;35715;51.570;6.036;2022-07-09T13:41:52;2.33;;;0.93;;
49826;SDS011;35715;51.570;6.036;2022-07-09T13:44:17;1.20;;;1.10;;
49826;SDS011;35715;51.570;6.036;2022-07-09T13:46:50;5.43;;;1.52;;
49826;SDS011;35715;51.570;6.036;2022-07-09T13:49:15;2.03;;;1.10;;
49826;SDS011;35715;51.570;6.036;2022-07-09T13:51:41;3.97;;;1.35;;
49826;SDS011;35715;51.570;6.036;2022-07-09T13:54:06;2.92;;;1.35;;
49826;SDS011;35715;51.570;6.036;2022-07-09T13:56:32;9.85;;;2.97;;
49826;SDS011;35715;51.570;6.036;2022-07-09T13:58:58;2.40;;;1.55;;
49826;SDS011;35715;51.570;6.036;2022-07-09T14:01:23;1.65;;;1.13;;
49826;SDS011;35715;51.570;6.036;2022-07-09T14:03:49;1.17;;;1.05;;
49826;SDS011;35715;51.570;6.036;2022-07-09T14:08:59;2.10;;;0.73;;
49826;SDS011;35715;51.570;6.036;2022-07-09T14:11:24;0.63;;;0.63;;
49826;SDS011;35715;51.570;6.036;2022-07-09T14:13:50;1.17;;;0.82;;
49826;SDS011;35715;51.570;6.036;2022-07-09T14:16:24;2.28;;;1.65;;
49826;SDS011;35715;51.570;6.036;2022-07-09T14:18:49;1.00;;;0.80;;
49826;SDS011;35715;51.570;6.036;2022-07-09T14:21:14;2.90;;;1.23;;
49826;SDS011;35715;51.570;6.036;2022-07-09T14:23:40;4.03;;;1.95;;
49826;SDS011;35715;51.570;6.036;2022-07-09T14:26:08;1.55;;;0.77;;
49826;SDS011;35715;51.570;6.036;2022-07-09T14:28:33;1.27;;;0.68;;
49826;SDS011;35715;51.570;6.036;2022-07-09T14:30:59;1.40;;;0.60;;
49826;SDS011;35715;51.570;6.036;2022-07-09T14:33:24;1.00;;;0.90;;
49826;SDS011;35715;51.570;6.036;2022-07-09T14:35:51;2.03;;;1.05;;
49826;SDS011;35715;51.570;6.036;2022-07-09T14:38:16;1.67;;;0.90;;
49826;SDS011;35715;51.570;6.036;2022-07-09T14:40:41;2.55;;;0.88;;
49826;SDS011;35715;51.570;6.036;2022-07-09T14:43:07;3.13;;;0.88;;
49826;SDS011;35715;51.570;6.036;2022-07-09T14:45:33;5.72;;;1.48;;
49826;SDS011;35715;51.570;6.036;2022-07-09T14:47:58;1.70;;;0.70;;
49826;SDS011;35715;51.570;6.036;2022-07-09T14:50:24;3.42;;;0.88;;
49826;SDS011;35715;51.570;6.036;2022-07-09T14:52:50;3.45;;;1.23;;
49826;SDS011;35715;51.570;6.036;2022-07-09T14:55:15;2.88;;;0.82;;
49826;SDS011;35715;51.570;6.036;2022-07-09T14:57:41;4.95;;;0.98;;
49826;SDS011;35715;51.570;6.036;2022-07-09T15:00:07;1.15;;;0.70;;
49826;SDS011;35715;51.570;6.036;2022-07-09T15:02:32;2.10;;;1.40;;
49826;SDS011;35715;51.570;6.036;2022-07-09T15:04:58;2.40;;;1.15;;